Terminal Aerodrome Forecast
Issued by NWS

Home | Current Version | Previous Version | Text Only | Print | Product List | Glossary On
Versions: 1 2 3 4 5 6 7 8 9 10 11 12 13
000
FTUS45 KRIW 250500
TAFWRL
TAF
KWRL 250534Z 2506/2606 VRB06KT P6SM SCT080 BKN150
     FM251400 32011KT P6SM SCT040 BKN060
     FM252100 02007KT P6SM SCT120
     FM260400 04007KT P6SM VCSH SCT040 BKN080=

USA.gov is the U.S. government's official web portal to all federal, state and local government web resources and services.